Time;durP1;ratioP1;P1;durP2;ratioP2;P2;SDS_P1;SDS_P2;PMS_P1;PMS_P2;Temp;Humidity;BMP_temperature;BMP_pressure;BME280_temperature;BME280_humidity;BME280_pressure;Samples;Min_cycle;Max_cycle;Signal;HPM_P1;HPM_P2
2022/07/10 00:00:31;;;;;;;2.35;1.42;;;;;;;;;;5014495;28;20064;-78
2022/07/10 00:02:57;;;;;;;1.33;1.17;;;;;;;;;;5018048;28;20068;-77
2022/07/10 00:05:24;;;;;;;3.35;1.45;;;;;;;;;;5017825;28;20451;-78
2022/07/10 00:07:50;;;;;;;2.65;1.17;;;;;;;;;;5018192;28;20148;-77
2022/07/10 00:10:19;;;;;;;1.83;1.15;;;;;;;;;;5017721;28;20042;-77
2022/07/10 00:12:46;;;;;;;2.95;1.40;;;;;;;;;;5017604;28;20132;-77
2022/07/10 00:15:13;;;;;;;2.20;1.23;;;;;;;;;;5017926;28;20504;-76
2022/07/10 00:17:40;;;;;;;3.60;1.38;;;;;;;;;;5017129;28;20069;-77
2022/07/10 00:20:07;;;;;;;4.90;1.30;;;;;;;;;;5017554;28;20042;-77
2022/07/10 00:22:37;;;;;;;1.73;1.30;;;;;;;;;;5018066;28;20038;-77
2022/07/10 00:25:07;;;;;;;2.47;1.10;;;;;;;;;;5017132;28;20444;-77
2022/07/10 00:27:33;;;;;;;1.60;1.27;;;;;;;;;;5017099;28;20053;-77
2022/07/10 00:29:59;;;;;;;5.22;1.40;;;;;;;;;;5017081;28;20574;-77
2022/07/10 00:32:25;;;;;;;2.55;1.10;;;;;;;;;;5017360;28;20152;-77
2022/07/10 00:34:52;;;;;;;1.70;1.30;;;;;;;;;;5017282;28;20500;-78
2022/07/10 00:37:18;;;;;;;2.95;1.20;;;;;;;;;;5016934;28;20104;-77
2022/07/10 00:39:44;;;;;;;1.45;1.17;;;;;;;;;;5016938;28;20096;-78
2022/07/10 00:42:12;;;;;;;3.65;1.30;;;;;;;;;;5017141;28;20128;-77
2022/07/10 00:44:38;;;;;;;2.53;1.20;;;;;;;;;;5016943;28;20489;-78
2022/07/10 00:47:05;;;;;;;1.70;1.40;;;;;;;;;;5017032;28;20104;-78
2022/07/10 00:49:32;;;;;;;3.50;1.70;;;;;;;;;;5017079;28;20054;-78
2022/07/10 00:51:59;;;;;;;2.03;1.40;;;;;;;;;;5016993;28;20046;-78
2022/07/10 00:54:26;;;;;;;3.20;1.50;;;;;;;;;;5016952;28;20038;-78
2022/07/10 00:56:52;;;;;;;2.17;1.30;;;;;;;;;;5016817;28;20048;-78
2022/07/10 00:59:19;;;;;;;1.45;1.17;;;;;;;;;;5016625;28;20054;-78
2022/07/10 01:01:45;;;;;;;1.95;1.20;;;;;;;;;;5016757;28;20084;-78
2022/07/10 01:04:11;;;;;;;3.20;1.30;;;;;;;;;;5016391;28;20045;-79
2022/07/10 01:06:37;;;;;;;1.55;1.45;;;;;;;;;;5016221;28;20042;-78
2022/07/10 01:09:03;;;;;;;3.47;1.42;;;;;;;;;;5016618;28;20052;-78
2022/07/10 01:11:30;;;;;;;3.42;1.50;;;;;;;;;;5015838;28;20034;-78
2022/07/10 01:13:56;;;;;;;2.00;1.42;;;;;;;;;;5015826;28;20092;-78
2022/07/10 01:16:23;;;;;;;3.08;1.23;;;;;;;;;;5015982;28;20045;-77
2022/07/10 01:18:49;;;;;;;1.80;1.50;;;;;;;;;;5016218;28;20045;-78
2022/07/10 01:21:28;;;;;;;2.55;1.52;;;;;;;;;;5016034;28;20048;-77
2022/07/10 01:23:54;;;;;;;2.08;1.40;;;;;;;;;;5016059;28;20072;-78
2022/07/10 01:26:24;;;;;;;6.82;1.75;;;;;;;;;;5015942;28;20056;-78
2022/07/10 01:28:50;;;;;;;3.22;1.40;;;;;;;;;;5015687;28;20102;-78
2022/07/10 01:31:18;;;;;;;2.40;1.45;;;;;;;;;;5015944;28;20037;-78
2022/07/10 01:33:45;;;;;;;1.63;1.52;;;;;;;;;;5014558;28;20366;-78
2022/07/10 01:36:11;;;;;;;1.55;1.40;;;;;;;;;;5015544;28;20053;-78
2022/07/10 01:38:37;;;;;;;1.80;1.25;;;;;;;;;;5015837;28;20116;-78
2022/07/10 01:41:04;;;;;;;2.28;1.52;;;;;;;;;;5016308;28;20052;-77
2022/07/10 01:43:30;;;;;;;3.78;1.70;;;;;;;;;;5015228;28;20440;-77
2022/07/10 01:45:56;;;;;;;3.90;1.40;;;;;;;;;;5015638;28;20076;-77
2022/07/10 01:48:22;;;;;;;2.55;1.40;;;;;;;;;;5016068;28;20053;-77
2022/07/10 01:50:48;;;;;;;1.60;1.25;;;;;;;;;;5015620;28;20048;-78
2022/07/10 01:53:14;;;;;;;2.25;1.42;;;;;;;;;;5015709;28;20077;-78
2022/07/10 01:55:40;;;;;;;3.13;1.58;;;;;;;;;;5015517;28;20053;-77
2022/07/10 01:58:06;;;;;;;3.92;1.33;;;;;;;;;;5015487;28;20048;-77
2022/07/10 02:00:32;;;;;;;1.80;1.40;;;;;;;;;;5015625;28;20121;-78
2022/07/10 02:05:43;;;;;;;3.13;1.40;;;;;;;;;;5015351;28;20513;-77
2022/07/10 02:08:09;;;;;;;1.70;1.50;;;;;;;;;;5015166;28;20041;-78
2022/07/10 02:10:35;;;;;;;3.63;1.50;;;;;;;;;;5015223;28;20044;-78
2022/07/10 02:13:01;;;;;;;3.78;1.55;;;;;;;;;;5015033;28;20527;-78
2022/07/10 02:15:28;;;;;;;4.20;1.83;;;;;;;;;;5015480;28;20115;-77
2022/07/10 02:17:54;;;;;;;4.85;1.52;;;;;;;;;;5014800;28;20038;-78
2022/07/10 02:20:21;;;;;;;3.95;1.80;;;;;;;;;;5015328;28;20129;-77
2022/07/10 02:22:47;;;;;;;1.85;1.63;;;;;;;;;;5014972;28;20128;-77
2022/07/10 02:25:13;;;;;;;3.10;1.52;;;;;;;;;;5014372;28;20059;-78
2022/07/10 02:27:39;;;;;;;3.95;1.73;;;;;;;;;;5014382;28;20050;-77
2022/07/10 02:30:05;;;;;;;2.65;1.50;;;;;;;;;;5014727;28;20076;-78
2022/07/10 02:32:31;;;;;;;3.28;1.60;;;;;;;;;;5015403;28;20046;-78
2022/07/10 02:34:58;;;;;;;3.78;1.75;;;;;;;;;;5014933;28;20095;-78
2022/07/10 02:37:25;;;;;;;3.20;1.67;;;;;;;;;;5015183;28;20045;-78
2022/07/10 02:39:51;;;;;;;2.78;1.80;;;;;;;;;;5014843;28;20104;-78
2022/07/10 02:42:17;;;;;;;3.47;1.65;;;;;;;;;;5014790;28;20488;-78
2022/07/10 02:44:43;;;;;;;4.97;2.08;;;;;;;;;;5014311;28;20042;-78
2022/07/10 02:47:09;;;;;;;6.28;1.70;;;;;;;;;;5015278;28;20046;-78
2022/07/10 02:49:35;;;;;;;2.53;1.80;;;;;;;;;;5014923;28;20038;-78
2022/07/10 02:52:02;;;;;;;3.08;2.13;;;;;;;;;;5014377;28;20049;-77
2022/07/10 02:54:28;;;;;;;4.18;1.80;;;;;;;;;;5014405;28;20038;-78
2022/07/10 02:56:54;;;;;;;2.85;1.55;;;;;;;;;;5014392;28;20049;-78
2022/07/10 02:59:20;;;;;;;2.00;1.58;;;;;;;;;;5014173;28;20089;-78
2022/07/10 03:01:46;;;;;;;4.20;2.10;;;;;;;;;;5014364;28;20038;-78
2022/07/10 03:04:12;;;;;;;3.40;1.92;;;;;;;;;;5014801;28;20248;-77
2022/07/10 03:06:38;;;;;;;3.28;1.80;;;;;;;;;;5014247;28;20045;-77
2022/07/10 03:09:04;;;;;;;2.97;2.05;;;;;;;;;;5014686;28;20084;-78
2022/07/10 03:11:30;;;;;;;3.88;2.22;;;;;;;;;;5014542;28;20038;-77
2022/07/10 03:13:57;;;;;;;2.72;2.15;;;;;;;;;;5014371;28;20049;-78
2022/07/10 03:16:23;;;;;;;2.15;1.95;;;;;;;;;;5014515;28;20052;-77
2022/07/10 03:18:49;;;;;;;3.95;2.00;;;;;;;;;;5014827;28;20041;-77
2022/07/10 03:21:15;;;;;;;6.10;2.30;;;;;;;;;;5014428;28;20045;-77
2022/07/10 03:23:41;;;;;;;4.75;1.90;;;;;;;;;;5014434;28;20099;-77
2022/07/10 03:26:07;;;;;;;4.88;2.17;;;;;;;;;;5014477;28;20076;-78
2022/07/10 03:28:34;;;;;;;7.53;2.28;;;;;;;;;;5014319;28;20133;-78
2022/07/10 03:31:00;;;;;;;4.55;2.03;;;;;;;;;;5014054;28;20417;-77
2022/07/10 03:33:26;;;;;;;4.13;2.20;;;;;;;;;;5014293;28;20501;-77
2022/07/10 03:35:52;;;;;;;3.90;1.88;;;;;;;;;;5016595;28;20095;-78
2022/07/10 03:38:18;;;;;;;2.60;2.03;;;;;;;;;;5018503;28;20052;-77
2022/07/10 03:40:47;;;;;;;3.38;2.13;;;;;;;;;;5017998;28;20038;-78
2022/07/10 03:43:13;;;;;;;3.33;2.30;;;;;;;;;;5017477;28;20049;-78
2022/07/10 03:45:40;;;;;;;3.88;2.20;;;;;;;;;;5017590;28;20481;-78
2022/07/10 03:48:06;;;;;;;4.25;2.13;;;;;;;;;;5018113;28;20042;-78
2022/07/10 03:50:33;;;;;;;2.95;2.47;;;;;;;;;;5017589;28;20029;-79
2022/07/10 03:53:01;;;;;;;3.38;2.10;;;;;;;;;;5017870;28;20124;-79
2022/07/10 03:55:28;;;;;;;4.28;2.05;;;;;;;;;;5017562;28;20034;-78
2022/07/10 03:58:02;;;;;;;2.50;2.25;;;;;;;;;;5017701;28;20092;-77
2022/07/10 04:00:28;;;;;;;3.42;1.80;;;;;;;;;;5592391;22;20104;-77
2022/07/10 04:02:56;;;;;;;3.72;2.20;;;;;;;;;;5037160;28;20053;-77
2022/07/10 04:05:22;;;;;;;3.05;1.98;;;;;;;;;;5036947;28;20033;-78
2022/07/10 04:07:48;;;;;;;4.00;2.17;;;;;;;;;;5037899;28;20095;-77
2022/07/10 04:10:14;;;;;;;4.82;2.03;;;;;;;;;;5036911;28;20072;-77
2022/07/10 04:12:40;;;;;;;3.38;2.17;;;;;;;;;;5037080;28;20041;-77
2022/07/10 04:15:07;;;;;;;3.58;2.03;;;;;;;;;;5036611;28;20042;-77
2022/07/10 04:17:33;;;;;;;2.85;2.25;;;;;;;;;;5036870;28;20037;-77
2022/07/10 04:20:00;;;;;;;3.22;2.38;;;;;;;;;;5036827;28;20530;-77
2022/07/10 04:22:27;;;;;;;6.15;2.58;;;;;;;;;;5036996;28;20065;-77
2022/07/10 04:24:54;;;;;;;5.15;2.28;;;;;;;;;;5037065;28;20048;-77
2022/07/10 04:27:20;;;;;;;2.65;2.20;;;;;;;;;;5036656;28;20055;-77
2022/07/10 04:29:47;;;;;;;4.20;2.20;;;;;;;;;;5036582;28;20033;-77
2022/07/10 04:32:13;;;;;;;3.30;2.40;;;;;;;;;;5036485;28;20037;-77
2022/07/10 04:34:39;;;;;;;5.28;2.20;;;;;;;;;;5037040;28;20083;-77
2022/07/10 04:37:09;;;;;;;2.78;2.40;;;;;;;;;;5036734;28;20152;-77
2022/07/10 04:39:37;;;;;;;3.95;2.50;;;;;;;;;;5036448;28;20069;-77
2022/07/10 04:42:03;;;;;;;3.88;2.60;;;;;;;;;;5036790;28;20056;-77
2022/07/10 04:44:29;;;;;;;4.43;2.30;;;;;;;;;;5036263;28;20439;-77
2022/07/10 04:46:56;;;;;;;2.42;2.20;;;;;;;;;;5035185;28;20128;-77
2022/07/10 04:49:22;;;;;;;2.97;2.67;;;;;;;;;;5036598;28;20048;-77
2022/07/10 04:51:48;;;;;;;4.10;2.35;;;;;;;;;;5036572;28;20048;-77
2022/07/10 04:54:14;;;;;;;3.03;2.60;;;;;;;;;;5036082;28;20082;-77
2022/07/10 04:56:40;;;;;;;3.08;2.28;;;;;;;;;;5036426;28;20052;-77
2022/07/10 04:59:07;;;;;;;6.88;2.63;;;;;;;;;;5036702;28;20040;-77
2022/07/10 05:01:33;;;;;;;3.78;2.20;;;;;;;;;;5036136;28;20176;-77
2022/07/10 05:03:59;;;;;;;3.83;2.53;;;;;;;;;;5036499;28;20041;-77
2022/07/10 05:06:25;;;;;;;2.30;2.10;;;;;;;;;;5036408;28;20046;-77
2022/07/10 05:08:53;;;;;;;3.65;2.05;;;;;;;;;;5036494;28;20053;-77
2022/07/10 05:11:19;;;;;;;4.63;2.22;;;;;;;;;;5036436;28;20095;-77
2022/07/10 05:13:48;;;;;;;5.18;2.38;;;;;;;;;;5036103;28;20040;-77
2022/07/10 05:16:14;;;;;;;5.95;2.55;;;;;;;;;;5036067;28;20052;-77
2022/07/10 05:18:40;;;;;;;3.40;2.95;;;;;;;;;;5036015;28;20042;-77
2022/07/10 05:21:06;;;;;;;3.42;2.33;;;;;;;;;;5036003;28;20051;-77
2022/07/10 05:23:33;;;;;;;4.43;2.08;;;;;;;;;;5036193;28;20506;-77
2022/07/10 05:25:59;;;;;;;3.05;2.58;;;;;;;;;;5036067;28;20052;-77
2022/07/10 05:28:25;;;;;;;4.85;2.17;;;;;;;;;;5036378;28;20048;-77
2022/07/10 05:30:52;;;;;;;2.22;2.03;;;;;;;;;;5036261;28;20073;-77
2022/07/10 05:33:18;;;;;;;4.15;2.00;;;;;;;;;;5035686;28;20071;-77
2022/07/10 05:35:44;;;;;;;5.88;2.78;;;;;;;;;;5035978;28;20049;-77
2022/07/10 05:38:11;;;;;;;2.53;2.10;;;;;;;;;;5035660;28;20065;-77
2022/07/10 05:40:37;;;;;;;3.05;2.10;;;;;;;;;;5035917;28;20045;-77
2022/07/10 05:43:03;;;;;;;5.97;2.22;;;;;;;;;;5035802;28;20037;-77
2022/07/10 05:45:29;;;;;;;2.53;1.65;;;;;;;;;;5036058;28;20037;-77
2022/07/10 05:47:56;;;;;;;2.83;1.98;;;;;;;;;;5035744;28;20053;-77
2022/07/10 05:50:22;;;;;;;4.97;1.90;;;;;;;;;;5036004;28;20051;-77
2022/07/10 05:52:48;;;;;;;2.78;1.80;;;;;;;;;;5036204;28;20065;-77
2022/07/10 05:55:15;;;;;;;3.03;1.88;;;;;;;;;;5035610;28;20099;-77
2022/07/10 05:57:41;;;;;;;1.92;1.50;;;;;;;;;;5035168;28;20029;-77
2022/07/10 06:00:08;;;;;;;2.65;1.48;;;;;;;;;;5035407;28;20045;-78
2022/07/10 06:02:34;;;;;;;3.60;1.60;;;;;;;;;;5035739;28;20041;-77
2022/07/10 06:05:00;;;;;;;5.53;1.70;;;;;;;;;;5035187;28;20472;-77
2022/07/10 06:07:27;;;;;;;2.10;1.77;;;;;;;;;;5035386;28;20056;-77
2022/07/10 06:09:54;;;;;;;1.50;1.40;;;;;;;;;;5035180;28;20499;-77
2022/07/10 06:12:21;;;;;;;2.13;1.48;;;;;;;;;;5035237;28;20034;-77
2022/07/10 06:14:47;;;;;;;2.75;1.50;;;;;;;;;;5035409;28;20124;-77
2022/07/10 06:17:13;;;;;;;6.22;2.30;;;;;;;;;;5034826;28;20048;-77
2022/07/10 06:19:39;;;;;;;7.95;1.70;;;;;;;;;;5035483;28;20045;-78
2022/07/10 06:24:50;;;;;;;3.05;1.55;;;;;;;;;;5034663;28;20084;-77
2022/07/10 06:27:16;;;;;;;3.88;1.70;;;;;;;;;;5034742;28;20072;-77
2022/07/10 06:29:44;;;;;;;1.88;1.58;;;;;;;;;;5035214;28;20081;-78
2022/07/10 06:32:10;;;;;;;2.45;1.70;;;;;;;;;;5034493;28;20033;-77
2022/07/10 06:34:36;;;;;;;3.38;1.77;;;;;;;;;;5034829;28;20443;-77
2022/07/10 06:37:02;;;;;;;4.30;1.55;;;;;;;;;;5034608;28;20120;-77
2022/07/10 06:39:33;;;;;;;4.00;1.60;;;;;;;;;;5034600;28;20052;-77
2022/07/10 06:42:00;;;;;;;3.72;1.60;;;;;;;;;;5033955;28;20044;-77
2022/07/10 06:44:26;;;;;;;1.48;1.38;;;;;;;;;;5034202;28;20033;-77
2022/07/10 06:49:37;;;;;;;1.63;1.40;;;;;;;;;;5014240;28;20052;-77
2022/07/10 06:52:03;;;;;;;1.83;1.27;;;;;;;;;;5014796;28;20116;-77
2022/07/10 06:54:29;;;;;;;5.00;1.30;;;;;;;;;;5014786;28;20519;-77
2022/07/10 06:56:56;;;;;;;2.50;1.50;;;;;;;;;;5014726;28;20042;-78
2022/07/10 06:59:22;;;;;;;2.88;1.40;;;;;;;;;;5014230;28;20038;-77
2022/07/10 07:01:48;;;;;;;1.65;1.50;;;;;;;;;;5014793;28;20065;-77
2022/07/10 07:04:15;;;;;;;5.03;1.40;;;;;;;;;;5014884;28;20049;-77
2022/07/10 07:06:41;;;;;;;1.80;1.58;;;;;;;;;;5014820;28;20037;-77
2022/07/10 07:09:07;;;;;;;1.50;1.40;;;;;;;;;;5015013;28;20046;-77
2022/07/10 07:11:33;;;;;;;1.70;1.33;;;;;;;;;;5018983;28;20045;-78
2022/07/10 07:13:59;;;;;;;1.92;1.40;;;;;;;;;;5018507;28;20042;-77
2022/07/10 07:16:38;;;;;;;2.05;1.20;;;;;;;;;;5018654;28;20084;-77
2022/07/10 07:19:05;;;;;;;1.30;1.20;;;;;;;;;;5023450;28;20045;-78
2022/07/10 07:24:20;;;;;;;1.58;1.30;;;;;;;;;;5028235;28;20091;-77
2022/07/10 07:26:49;;;;;;;1.90;1.35;;;;;;;;;;5030453;28;20460;-77
2022/07/10 07:29:15;;;;;;;2.38;1.40;;;;;;;;;;5038364;28;20068;-77
2022/07/10 07:31:42;;;;;;;2.70;1.30;;;;;;;;;;5002852;28;20041;-77
2022/07/10 07:34:08;;;;;;;1.75;1.25;;;;;;;;;;5022188;28;20041;-77
2022/07/10 07:36:34;;;;;;;2.60;1.45;;;;;;;;;;5030963;28;20076;-77
2022/07/10 07:39:00;;;;;;;4.78;1.50;;;;;;;;;;5022544;28;20048;-77
2022/07/10 07:41:26;;;;;;;1.55;1.30;;;;;;;;;;5025598;28;20593;-77
2022/07/10 07:43:52;;;;;;;2.80;1.48;;;;;;;;;;5017938;28;20049;-77
2022/07/10 07:46:20;;;;;;;2.17;1.50;;;;;;;;;;5032592;28;20041;-77
2022/07/10 07:48:46;;;;;;;2.53;1.23;;;;;;;;;;5027103;28;20038;-77
2022/07/10 07:51:13;;;;;;;3.63;1.25;;;;;;;;;;5017688;28;20420;-77
2022/07/10 07:53:39;;;;;;;3.05;1.38;;;;;;;;;;5018133;28;20034;-77
2022/07/10 07:56:05;;;;;;;4.65;1.38;;;;;;;;;;5017849;28;20080;-77
2022/07/10 07:58:31;;;;;;;1.50;1.40;;;;;;;;;;5018937;28;20034;-78
2022/07/10 08:00:59;;;;;;;1.88;1.40;;;;;;;;;;5017878;28;20116;-77
2022/07/10 08:03:25;;;;;;;2.15;1.52;;;;;;;;;;5016923;28;20038;-77
2022/07/10 08:05:51;;;;;;;2.55;2.20;;;;;;;;;;5016600;28;20081;-77
2022/07/10 08:08:17;;;;;;;2.63;2.30;;;;;;;;;;5035099;28;20057;-77
2022/07/10 08:10:43;;;;;;;2.72;1.80;;;;;;;;;;5036585;28;20037;-77
2022/07/10 08:13:10;;;;;;;3.45;2.03;;;;;;;;;;5037013;28;20088;-77
2022/07/10 08:15:36;;;;;;;1.92;1.23;;;;;;;;;;5037006;28;20069;-77
2022/07/10 08:18:04;;;;;;;1.70;1.40;;;;;;;;;;5020764;28;20068;-76
2022/07/10 08:20:30;;;;;;;1.70;1.40;;;;;;;;;;5030391;28;20084;-78
2022/07/10 08:22:57;;;;;;;4.28;1.40;;;;;;;;;;5031604;28;20120;-78
2022/07/10 08:25:23;;;;;;;4.10;1.67;;;;;;;;;;5035965;28;20061;-78
2022/07/10 08:27:49;;;;;;;3.10;1.50;;;;;;;;;;5033432;28;20045;-77
2022/07/10 08:30:15;;;;;;;2.30;1.10;;;;;;;;;;5035663;28;20041;-78
2022/07/10 08:32:42;;;;;;;1.58;1.30;;;;;;;;;;5025698;28;20114;-78
2022/07/10 08:35:08;;;;;;;5.10;1.70;;;;;;;;;;5035614;28;20124;-78
2022/07/10 08:37:41;;;;;;;3.08;1.70;;;;;;;;;;5032412;28;20045;-77
2022/07/10 08:40:09;;;;;;;4.90;1.52;;;;;;;;;;5025762;28;20113;-78
2022/07/10 08:42:36;;;;;;;1.50;1.20;;;;;;;;;;5035893;28;20044;-78
2022/07/10 08:45:02;;;;;;;1.45;1.20;;;;;;;;;;5017041;28;20041;-78
2022/07/10 08:47:31;;;;;;;2.75;1.40;;;;;;;;;;5030775;28;20123;-78
2022/07/10 08:49:57;;;;;;;1.40;1.20;;;;;;;;;;5032447;28;20503;-78
2022/07/10 08:52:31;;;;;;;1.75;1.33;;;;;;;;;;5029828;28;20117;-78
2022/07/10 08:54:57;;;;;;;1.77;1.00;;;;;;;;;;5029926;28;20041;-79
2022/07/10 08:57:25;;;;;;;2.67;1.30;;;;;;;;;;5024853;28;20061;-78
2022/07/10 08:59:51;;;;;;;2.00;1.20;;;;;;;;;;5026667;28;20050;-78
2022/07/10 09:02:17;;;;;;;1.10;1.00;;;;;;;;;;5023970;28;20106;-78
2022/07/10 09:04:44;;;;;;;1.77;1.05;;;;;;;;;;5026400;28;20087;-78
2022/07/10 09:07:10;;;;;;;2.15;1.05;;;;;;;;;;5023677;28;20096;-77
2022/07/10 09:09:57;;;;;;;1.15;1.00;;;;;;;;;;5022398;28;20052;-78
2022/07/10 09:12:24;;;;;;;3.63;1.92;;;;;;;;;;5021579;28;20116;-76
2022/07/10 09:14:51;;;;;;;2.00;1.50;;;;;;;;;;5033847;28;20068;-78
2022/07/10 09:17:18;;;;;;;1.25;1.15;;;;;;;;;;5028850;28;20111;-77
2022/07/10 09:19:45;;;;;;;2.22;1.92;;;;;;;;;;5023588;28;20048;-77
2022/07/10 09:22:11;;;;;;;1.52;1.30;;;;;;;;;;5029630;28;20519;-77
2022/07/10 09:24:37;;;;;;;2.35;1.10;;;;;;;;;;5031784;28;20038;-76
2022/07/10 09:27:04;;;;;;;1.45;1.27;;;;;;;;;;5034176;28;20095;-76
2022/07/10 09:29:31;;;;;;;2.63;1.20;;;;;;;;;;5030354;28;20219;-77
2022/07/10 09:32:01;;;;;;;2.45;1.30;;;;;;;;;;5025733;28;20496;-77
2022/07/10 09:34:37;;;;;;;3.05;1.35;;;;;;;;;;5025428;28;20088;-77
2022/07/10 09:37:22;;;;;;;0.90;0.82;;;;;;;;;;5024246;28;20049;-77
2022/07/10 09:39:58;;;;;;;1.42;1.10;;;;;;;;;;5027851;28;20115;-77
2022/07/10 09:42:26;;;;;;;1.35;1.00;;;;;;;;;;5034921;28;20072;-77
2022/07/10 09:44:56;;;;;;;2.72;1.20;;;;;;;;;;5028945;28;20049;-77
2022/07/10 09:47:23;;;;;;;1.58;1.17;;;;;;;;;;5031309;28;20060;-77
2022/07/10 09:49:49;;;;;;;1.10;1.00;;;;;;;;;;5044034;28;20045;-77
2022/07/10 09:52:17;;;;;;;1.50;1.05;;;;;;;;;;5014899;28;20073;-76
2022/07/10 09:54:43;;;;;;;1.50;1.40;;;;;;;;;;5020546;28;20049;-77
2022/07/10 09:57:10;;;;;;;1.48;1.13;;;;;;;;;;5046762;28;20132;-77
2022/07/10 09:59:37;;;;;;;1.48;1.38;;;;;;;;;;5034828;28;20063;-77
2022/07/10 10:02:06;;;;;;;3.20;1.27;;;;;;;;;;5036127;28;20085;-77
2022/07/10 10:04:34;;;;;;;1.30;1.20;;;;;;;;;;5033750;28;20128;-77
2022/07/10 10:07:01;;;;;;;2.45;1.10;;;;;;;;;;5043440;28;20049;-77
2022/07/10 10:09:28;;;;;;;3.67;1.23;;;;;;;;;;5033988;28;20049;-76
2022/07/10 10:12:00;;;;;;;1.65;0.95;;;;;;;;;;5029431;28;20056;-77
2022/07/10 10:14:28;;;;;;;1.42;1.27;;;;;;;;;;5032377;28;20045;-77
2022/07/10 10:16:55;;;;;;;1.42;1.05;;;;;;;;;;5025118;28;20538;-77
2022/07/10 10:22:09;;;;;;;1.23;1.13;;;;;;;;;;5029876;28;20040;-78
2022/07/10 10:24:39;;;;;;;1.98;0.95;;;;;;;;;;5027666;28;20045;-78
2022/07/10 10:27:06;;;;;;;1.00;0.90;;;;;;;;;;5027315;28;20048;-78
2022/07/10 10:29:35;;;;;;;0.77;0.77;;;;;;;;;;5024106;28;20139;-77
2022/07/10 10:32:02;;;;;;;2.85;1.05;;;;;;;;;;5026837;28;20045;-76
2022/07/10 10:34:44;;;;;;;1.02;0.85;;;;;;;;;;5007100;28;20404;-77
2022/07/10 10:37:33;;;;;;;1.48;1.25;;;;;;;;;;5023462;28;20405;-77
2022/07/10 10:39:59;;;;;;;1.65;0.80;;;;;;;;;;5030812;28;20077;-78
2022/07/10 10:42:39;;;;;;;1.27;0.80;;;;;;;;;;5027095;28;20034;-77
2022/07/10 10:45:23;;;;;;;3.90;1.00;;;;;;;;;;5040430;28;20073;-77
2022/07/10 10:48:02;;;;;;;1.95;0.80;;;;;;;;;;5030766;28;20041;-77
2022/07/10 10:50:46;;;;;;;2.13;0.90;;;;;;;;;;5027683;28;20091;-75
2022/07/10 10:53:17;;;;;;;0.75;0.75;;;;;;;;;;5022894;28;20034;-77
2022/07/10 10:56:01;;;;;;;0.93;0.80;;;;;;;;;;5033081;28;20049;-78
2022/07/10 10:58:29;;;;;;;2.65;0.80;;;;;;;;;;5029593;28;20518;-77
2022/07/10 11:01:05;;;;;;;5.43;1.08;;;;;;;;;;5033446;28;20068;-77
2022/07/10 11:03:31;;;;;;;3.70;1.08;;;;;;;;;;5032079;28;20037;-77
2022/07/10 11:05:58;;;;;;;2.75;1.23;;;;;;;;;;5024879;28;20137;-77
2022/07/10 11:08:45;;;;;;;2.45;1.20;;;;;;;;;;5031154;28;20049;-77
2022/07/10 11:11:30;;;;;;;1.90;0.68;;;;;;;;;;5030853;28;20049;-77
2022/07/10 11:13:59;;;;;;;1.30;0.68;;;;;;;;;;5029510;28;20056;-77
2022/07/10 11:16:25;;;;;;;0.80;0.80;;;;;;;;;;5027027;28;20041;-77
2022/07/10 11:18:55;;;;;;;2.40;0.85;;;;;;;;;;5029545;28;20034;-77
2022/07/10 11:21:25;;;;;;;0.90;0.80;;;;;;;;;;5024497;28;20072;-77
2022/07/10 11:23:59;;;;;;;2.45;0.70;;;;;;;;;;5028199;28;20484;-77
2022/07/10 11:26:49;;;;;;;0.65;0.65;;;;;;;;;;5024007;28;20141;-77
2022/07/10 11:29:18;;;;;;;1.42;0.75;;;;;;;;;;5031979;28;20061;-77
2022/07/10 11:31:52;;;;;;;0.70;0.70;;;;;;;;;;5031940;28;20049;-76
2022/07/10 11:34:18;;;;;;;1.75;1.10;;;;;;;;;;5033716;28;20503;-77
2022/07/10 11:36:44;;;;;;;1.48;0.60;;;;;;;;;;5033750;28;20048;-77
2022/07/10 11:39:12;;;;;;;1.05;0.65;;;;;;;;;;5028876;28;20038;-77
2022/07/10 11:41:45;;;;;;;1.27;0.60;;;;;;;;;;5032956;28;20041;-77
2022/07/10 11:44:20;;;;;;;1.13;0.80;;;;;;;;;;5031765;28;20511;-77
2022/07/10 11:46:49;;;;;;;5.72;0.90;;;;;;;;;;5032624;28;20072;-78
2022/07/10 11:49:15;;;;;;;1.00;0.73;;;;;;;;;;5032997;28;20045;-77
2022/07/10 11:51:42;;;;;;;0.90;0.73;;;;;;;;;;5032844;28;20534;-78
2022/07/10 11:54:18;;;;;;;1.15;0.70;;;;;;;;;;5033358;28;20041;-78
2022/07/10 11:56:52;;;;;;;2.33;0.60;;;;;;;;;;5018587;28;20400;-79
2022/07/10 11:59:19;;;;;;;3.63;0.82;;;;;;;;;;5019733;28;20588;-77
2022/07/10 12:01:49;;;;;;;1.40;0.63;;;;;;;;;;5036832;28;20053;-77
2022/07/10 12:04:16;;;;;;;1.30;0.87;;;;;;;;;;5036107;28;20037;-76
2022/07/10 12:06:44;;;;;;;1.30;1.00;;;;;;;;;;5014282;28;20045;-76
2022/07/10 12:09:14;;;;;;;1.42;0.98;;;;;;;;;;5023463;28;20037;-76
2022/07/10 12:11:42;;;;;;;0.88;0.68;;;;;;;;;;5036483;28;20090;-74
2022/07/10 12:14:17;;;;;;;2.78;0.90;;;;;;;;;;5041181;28;20491;-73
2022/07/10 12:16:44;;;;;;;12.40;0.90;;;;;;;;;;5055551;28;20084;-74
2022/07/10 12:19:12;;;;;;;0.57;0.50;;;;;;;;;;5046167;28;20046;-75
2022/07/10 12:21:39;;;;;;;1.23;0.57;;;;;;;;;;5030501;28;20053;-75
2022/07/10 12:24:05;;;;;;;1.60;0.60;;;;;;;;;;5033524;28;20038;-74
2022/07/10 12:26:33;;;;;;;1.77;0.50;;;;;;;;;;5034117;28;20126;-74
2022/07/10 12:28:59;;;;;;;0.98;0.82;;;;;;;;;;5035694;28;20046;-75
2022/07/10 12:31:29;;;;;;;0.80;0.70;;;;;;;;;;5035947;28;20045;-75
2022/07/10 12:33:57;;;;;;;0.60;0.60;;;;;;;;;;5036273;28;20037;-75
2022/07/10 12:36:24;;;;;;;0.50;0.50;;;;;;;;;;5048612;28;20032;-75
2022/07/10 12:38:55;;;;;;;0.70;0.50;;;;;;;;;;5051238;28;20057;-76
2022/07/10 12:41:24;;;;;;;3.13;0.70;;;;;;;;;;5036938;28;20069;-75
2022/07/10 12:43:51;;;;;;;1.02;0.80;;;;;;;;;;5035506;28;20116;-76
2022/07/10 12:46:24;;;;;;;1.55;0.70;;;;;;;;;;5024968;28;20041;-76
2022/07/10 12:49:07;;;;;;;2.58;1.00;;;;;;;;;;5015709;28;20505;-76
2022/07/10 12:51:53;;;;;;;1.60;0.70;;;;;;;;;;5015881;28;20084;-76
2022/07/10 12:54:32;;;;;;;1.85;0.60;;;;;;;;;;5015179;28;20504;-76
2022/07/10 12:57:00;;;;;;;0.60;0.60;;;;;;;;;;5016064;28;20037;-76
2022/07/10 12:59:27;;;;;;;0.60;0.60;;;;;;;;;;5034747;28;20503;-76
2022/07/10 13:01:53;;;;;;;3.85;0.80;;;;;;;;;;5034911;28;20045;-76
2022/07/10 13:04:30;;;;;;;3.33;0.68;;;;;;;;;;5036005;28;20059;-76
2022/07/10 13:07:12;;;;;;;1.15;0.85;;;;;;;;;;5034903;28;20041;-76
2022/07/10 13:09:40;;;;;;;2.40;1.00;;;;;;;;;;5034991;28;20072;-75
2022/07/10 13:12:07;;;;;;;1.17;0.70;;;;;;;;;;5035643;28;20037;-75
2022/07/10 13:14:33;;;;;;;6.28;1.00;;;;;;;;;;5035931;28;20072;-76
2022/07/10 13:17:00;;;;;;;0.65;0.65;;;;;;;;;;5039784;28;20040;-76
2022/07/10 13:19:26;;;;;;;0.68;0.60;;;;;;;;;;5055709;28;20114;-75
2022/07/10 13:21:52;;;;;;;1.75;0.60;;;;;;;;;;5054996;28;20040;-76
2022/07/10 13:24:19;;;;;;;1.20;0.60;;;;;;;;;;5054853;28;20033;-75
2022/07/10 13:26:45;;;;;;;0.93;0.70;;;;;;;;;;5055351;28;20056;-76
2022/07/10 13:29:11;;;;;;;2.38;0.55;;;;;;;;;;5051228;28;20613;-76
2022/07/10 13:31:37;;;;;;;1.35;0.68;;;;;;;;;;5034434;28;20045;-76
2022/07/10 13:34:04;;;;;;;0.60;0.60;;;;;;;;;;5033695;28;20407;-76
2022/07/10 13:36:30;;;;;;;1.60;0.70;;;;;;;;;;5034886;28;20446;-76
2022/07/10 13:38:57;;;;;;;1.13;0.80;;;;;;;;;;5034454;28;20160;-75
2022/07/10 13:41:23;;;;;;;1.00;0.82;;;;;;;;;;5030601;28;20038;-75
2022/07/10 13:43:49;;;;;;;1.52;0.90;;;;;;;;;;5034754;28;20073;-74
2022/07/10 13:46:15;;;;;;;4.03;0.98;;;;;;;;;;5034046;28;20044;-74
2022/07/10 13:48:41;;;;;;;6.47;1.02;;;;;;;;;;5032521;28;20445;-75
2022/07/10 13:51:08;;;;;;;1.58;0.90;;;;;;;;;;5031313;28;20034;-75
2022/07/10 13:53:34;;;;;;;1.25;0.77;;;;;;;;;;5022390;28;20037;-76
2022/07/10 13:56:00;;;;;;;1.40;0.80;;;;;;;;;;5015734;28;20100;-76
2022/07/10 13:58:26;;;;;;;2.33;1.00;;;;;;;;;;5014871;28;20083;-76
2022/07/10 14:00:53;;;;;;;0.80;0.80;;;;;;;;;;5024446;28;20408;-76
2022/07/10 14:03:19;;;;;;;1.40;0.82;;;;;;;;;;5034055;28;20045;-76
2022/07/10 14:05:45;;;;;;;1.30;0.77;;;;;;;;;;5030662;28;20037;-76
2022/07/10 14:08:11;;;;;;;1.23;0.90;;;;;;;;;;5020637;28;20128;-75
2022/07/10 14:10:38;;;;;;;0.70;0.70;;;;;;;;;;5034170;28;20091;-76
2022/07/10 14:13:05;;;;;;;2.13;0.80;;;;;;;;;;5034073;28;20064;-74
2022/07/10 14:15:31;;;;;;;1.10;1.00;;;;;;;;;;5033733;28;20499;-74
2022/07/10 14:17:57;;;;;;;2.05;0.90;;;;;;;;;;5021026;28;20124;-74
2022/07/10 14:20:23;;;;;;;2.28;0.93;;;;;;;;;;5023609;28;20060;-74
2022/07/10 14:22:50;;;;;;;1.67;0.85;;;;;;;;;;5022136;28;20033;-74
2022/07/10 14:25:16;;;;;;;1.52;0.93;;;;;;;;;;5023260;28;20056;-75
2022/07/10 14:27:42;;;;;;;0.75;0.75;;;;;;;;;;5026034;28;20136;-75
2022/07/10 14:30:09;;;;;;;0.70;0.70;;;;;;;;;;5021033;28;20038;-75
2022/07/10 14:32:36;;;;;;;0.80;0.80;;;;;;;;;;5027682;28;20538;-75
2022/07/10 14:35:02;;;;;;;1.77;0.63;;;;;;;;;;5026769;28;20132;-75
2022/07/10 14:37:28;;;;;;;1.35;0.73;;;;;;;;;;5029070;28;20769;-75
2022/07/10 14:39:54;;;;;;;2.47;0.73;;;;;;;;;;5022825;28;20045;-75
2022/07/10 14:42:20;;;;;;;1.02;0.88;;;;;;;;;;5032488;28;20045;-75
2022/07/10 14:44:47;;;;;;;2.92;0.80;;;;;;;;;;5033383;28;20033;-74
2022/07/10 14:47:14;;;;;;;0.73;0.73;;;;;;;;;;5033100;28;20041;-75
2022/07/10 14:49:40;;;;;;;1.83;0.68;;;;;;;;;;5033009;28;20045;-75
2022/07/10 14:52:07;;;;;;;3.45;0.88;;;;;;;;;;5035450;28;20064;-75
2022/07/10 14:54:33;;;;;;;1.90;0.80;;;;;;;;;;5053466;28;20033;-75
2022/07/10 14:57:00;;;;;;;0.68;0.60;;;;;;;;;;5053204;28;20116;-75
2022/07/10 14:59:26;;;;;;;0.60;0.57;;;;;;;;;;5052752;28;20037;-75